Time;durP1;ratioP1;P1;durP2;ratioP2;P2;SDS_P1;SDS_P2;PMS_P1;PMS_P2;Temp;Humidity;BMP_temperature;BMP_pressure;BME280_temperature;BME280_humidity;BME280_pressure;Samples;Min_cycle;Max_cycle;Signal;HPM_P1;HPM_P2
2023/05/31 00:00:21;;;;;;;2.60;1.80;;;16.80;63.10;;;;;;5033982;28;20021;-81
2023/05/31 00:02:47;;;;;;;2.70;1.90;;;16.80;63.10;;;;;;5046498;28;20030;-82
2023/05/31 00:05:13;;;;;;;2.50;1.90;;;16.70;63.20;;;;;;5013997;28;20501;-80
2023/05/31 00:07:39;;;;;;;2.97;1.80;;;16.70;63.20;;;;;;5022495;28;20401;-81
2023/05/31 00:10:05;;;;;;;2.70;1.98;;;16.70;63.30;;;;;;5037030;28;20760;-80
2023/05/31 00:12:31;;;;;;;2.42;1.85;;;16.70;63.20;;;;;;5048270;28;20390;-80
2023/05/31 00:14:57;;;;;;;3.20;1.90;;;16.70;63.30;;;;;;5023839;28;20952;-83
2023/05/31 00:17:23;;;;;;;2.78;2.00;;;16.70;63.40;;;;;;5048588;28;20021;-82
2023/05/31 00:19:49;;;;;;;2.42;1.75;;;16.70;63.70;;;;;;5046955;28;20017;-84
2023/05/31 00:22:16;;;;;;;2.27;1.70;;;16.60;63.60;;;;;;4997172;28;20047;-81
2023/05/31 00:24:43;;;;;;;2.53;1.70;;;16.60;63.60;;;;;;5040214;28;20470;-83
2023/05/31 00:27:09;;;;;;;2.28;1.85;;;16.50;63.70;;;;;;5039942;28;20082;-81
2023/05/31 00:29:35;;;;;;;2.03;1.52;;;16.50;63.60;;;;;;5040926;28;20033;-83
2023/05/31 00:32:01;;;;;;;2.77;2.07;;;16.50;63.70;;;;;;5020292;28;20180;-81
2023/05/31 00:34:26;;;;;;;2.90;2.00;;;16.50;63.90;;;;;;5047621;28;20063;-80
2023/05/31 00:36:52;;;;;;;2.25;1.80;;;16.40;63.90;;;;;;5019163;28;20243;-79
2023/05/31 00:39:18;;;;;;;2.90;1.80;;;16.40;63.90;;;;;;5070960;28;20123;-81
2023/05/31 00:41:44;;;;;;;3.03;1.83;;;16.40;64.00;;;;;;5037538;28;20107;-83
2023/05/31 00:44:10;;;;;;;4.05;1.77;;;16.30;64.00;;;;;;5041902;28;20351;-80
2023/05/31 00:46:38;;;;;;;2.72;1.92;;;16.30;64.20;;;;;;5047454;28;20017;-82
2023/05/31 00:49:04;;;;;;;2.73;1.80;;;16.30;64.40;;;;;;5045905;28;20525;-81
2023/05/31 00:51:31;;;;;;;2.45;1.80;;;16.20;64.40;;;;;;5027377;28;20028;-81
2023/05/31 00:53:59;;;;;;;2.53;1.73;;;16.10;64.50;;;;;;5053075;28;20037;-81
2023/05/31 00:56:26;;;;;;;2.78;1.88;;;16.10;64.80;;;;;;5051632;28;20085;-81
2023/05/31 00:58:53;;;;;;;2.55;1.90;;;16.10;64.70;;;;;;5038747;28;20036;-81
2023/05/31 01:01:21;;;;;;;3.00;1.83;;;16.00;64.70;;;;;;5046552;28;20032;-80
2023/05/31 01:03:47;;;;;;;2.47;1.80;;;16.00;64.90;;;;;;5045167;28;20028;-83
2023/05/31 01:06:13;;;;;;;3.78;2.00;;;16.00;65.00;;;;;;5013232;28;20020;-82
2023/05/31 01:08:40;;;;;;;3.72;1.90;;;15.90;64.90;;;;;;5042603;28;20891;-83
2023/05/31 01:11:30;;;;;;;2.63;1.97;;;15.90;65.00;;;;;;5047805;28;20113;-80
2023/05/31 01:14:13;;;;;;;2.58;1.85;;;15.90;65.70;;;;;;5071084;27;20036;-82
2023/05/31 01:16:52;;;;;;;2.75;1.70;;;15.90;65.90;;;;;;5043632;28;20380;-83
2023/05/31 01:19:33;;;;;;;2.53;1.80;;;15.80;65.50;;;;;;5046526;28;20028;-80
2023/05/31 01:22:33;;;;;;;2.80;1.83;;;15.80;66.50;;;;;;5023486;28;20377;-81
2023/05/31 01:25:31;;;;;;;2.60;1.93;;;15.70;66.30;;;;;;5037389;28;20053;-81
2023/05/31 01:27:59;;;;;;;2.00;1.65;;;15.70;66.30;;;;;;5057943;28;20310;-80
2023/05/31 01:30:29;;;;;;;2.58;1.77;;;15.70;65.50;;;;;;5039385;28;20028;-84
2023/05/31 01:32:58;;;;;;;3.40;1.95;;;15.60;65.70;;;;;;5054806;28;20111;-81
2023/05/31 01:35:23;;;;;;;3.65;1.90;;;15.60;65.80;;;;;;5044068;28;20027;-83
2023/05/31 01:37:50;;;;;;;2.60;1.97;;;15.60;65.80;;;;;;5023850;28;20036;-81
2023/05/31 01:40:17;;;;;;;2.85;1.92;;;15.60;65.80;;;;;;5048012;28;20044;-80
2023/05/31 01:42:45;;;;;;;2.63;1.92;;;15.50;65.90;;;;;;5042709;28;20017;-85
2023/05/31 01:45:12;;;;;;;2.90;2.10;;;15.50;65.90;;;;;;5051482;28;20024;-80
2023/05/31 01:47:41;;;;;;;2.37;1.80;;;15.50;66.10;;;;;;5039487;28;20033;-83
2023/05/31 01:50:09;;;;;;;3.95;2.00;;;15.40;66.20;;;;;;5057508;28;20035;-81
2023/05/31 01:52:37;;;;;;;3.35;2.30;;;15.40;66.40;;;;;;5020871;28;20148;-83
2023/05/31 01:55:03;;;;;;;2.78;1.98;;;15.40;66.70;;;;;;5033962;28;20034;-81
2023/05/31 01:57:35;;;;;;;3.17;2.03;;;15.30;66.50;;;;;;5032340;28;20040;-83
2023/05/31 02:00:06;;;;;;;2.70;2.00;;;15.30;67.00;;;;;;5041457;28;20274;-81
2023/05/31 02:02:33;;;;;;;2.50;1.98;;;15.30;66.50;;;;;;5042160;28;20031;-83
2023/05/31 02:05:08;;;;;;;2.38;1.73;;;15.30;66.70;;;;;;5054663;28;20047;-80
2023/05/31 02:07:35;;;;;;;2.80;1.95;;;15.30;67.50;;;;;;5025950;28;20481;-83
2023/05/31 02:10:02;;;;;;;2.50;1.90;;;15.30;66.80;;;;;;5058512;28;20029;-81
2023/05/31 02:12:28;;;;;;;2.27;1.83;;;15.30;66.80;;;;;;5043287;28;20028;-81
2023/05/31 02:14:54;;;;;;;2.70;2.00;;;15.20;66.80;;;;;;5036996;28;20161;-81
2023/05/31 02:17:23;;;;;;;2.97;2.17;;;15.20;66.80;;;;;;5033883;28;20025;-80
2023/05/31 02:19:53;;;;;;;2.97;2.22;;;15.20;67.00;;;;;;5046520;28;20059;-80
2023/05/31 02:22:20;;;;;;;2.70;1.98;;;15.20;67.50;;;;;;5053131;28;20442;-80
2023/05/31 02:24:46;;;;;;;2.83;1.83;;;15.10;67.10;;;;;;5019515;28;20135;-80
2023/05/31 02:27:12;;;;;;;3.33;2.10;;;15.10;67.00;;;;;;5043463;28;20027;-80
2023/05/31 02:29:38;;;;;;;2.85;1.98;;;15.10;67.20;;;;;;5025318;28;20492;-83
2023/05/31 02:32:04;;;;;;;3.15;2.25;;;15.10;67.20;;;;;;5073892;28;20013;-83
2023/05/31 02:34:31;;;;;;;3.30;2.20;;;15.00;67.20;;;;;;5045004;28;20040;-83
2023/05/31 02:36:57;;;;;;;2.70;2.00;;;15.00;67.30;;;;;;5047610;28;20024;-79
2023/05/31 02:39:25;;;;;;;2.80;2.13;;;15.00;67.50;;;;;;5047664;28;20066;-82
2023/05/31 02:41:51;;;;;;;3.50;2.40;;;15.00;67.70;;;;;;5026763;28;20089;-81
2023/05/31 02:44:17;;;;;;;3.13;2.22;;;15.00;67.50;;;;;;5040261;28;20025;-82
2023/05/31 02:46:43;;;;;;;2.77;1.97;;;14.90;67.50;;;;;;5030090;28;20025;-82
2023/05/31 02:49:09;;;;;;;3.95;2.20;;;14.90;67.50;;;;;;5050372;28;20021;-80
2023/05/31 02:51:35;;;;;;;3.13;2.38;;;14.90;67.80;;;;;;5067247;28;20028;-82
2023/05/31 02:54:01;;;;;;;2.67;1.93;;;14.90;67.90;;;;;;5031738;28;20274;-81
2023/05/31 02:56:27;;;;;;;3.13;2.22;;;14.80;67.80;;;;;;5022962;28;20133;-83
2023/05/31 02:58:53;;;;;;;3.03;2.25;;;14.80;68.00;;;;;;5052138;28;20658;-80
2023/05/31 03:01:19;;;;;;;2.90;2.20;;;14.80;68.00;;;;;;5039888;28;20029;-81
2023/05/31 03:03:45;;;;;;;3.40;2.10;;;14.80;68.20;;;;;;5035650;28;20237;-80
2023/05/31 03:06:12;;;;;;;2.63;2.17;;;14.70;68.10;;;;;;5055262;28;20024;-81
2023/05/31 03:08:37;;;;;;;3.65;2.15;;;14.80;68.10;;;;;;5050346;28;20502;-83
2023/05/31 03:11:03;;;;;;;2.70;2.13;;;14.70;68.10;;;;;;5051419;28;20048;-81
2023/05/31 03:13:29;;;;;;;3.03;2.25;;;14.70;68.20;;;;;;5009008;28;20075;-82
2023/05/31 03:15:55;;;;;;;2.95;2.13;;;14.70;68.30;;;;;;5030803;28;20409;-81
2023/05/31 03:18:21;;;;;;;2.60;2.00;;;14.70;68.40;;;;;;5037688;28;20446;-81
2023/05/31 03:20:46;;;;;;;2.85;2.13;;;14.70;68.60;;;;;;5024559;28;21065;-81
2023/05/31 03:23:12;;;;;;;3.15;2.25;;;14.60;68.60;;;;;;5082941;27;20508;-81
2023/05/31 03:25:38;;;;;;;4.03;2.20;;;14.60;68.70;;;;;;5050651;28;20473;-83
2023/05/31 03:28:04;;;;;;;3.25;2.28;;;14.60;68.70;;;;;;5026256;28;20028;-81
2023/05/31 03:30:30;;;;;;;3.63;2.30;;;14.60;68.90;;;;;;5042253;28;20036;-83
2023/05/31 03:32:56;;;;;;;3.13;2.23;;;14.50;68.90;;;;;;5039828;28;20354;-82
2023/05/31 03:35:22;;;;;;;3.25;2.15;;;14.50;68.90;;;;;;5049078;28;20035;-83
2023/05/31 03:37:48;;;;;;;3.03;2.25;;;14.50;69.00;;;;;;5042057;28;20253;-79
2023/05/31 03:40:13;;;;;;;3.33;2.30;;;14.50;69.00;;;;;;5048397;28;20063;-80
2023/05/31 03:42:39;;;;;;;4.72;2.47;;;14.50;69.20;;;;;;5023782;28;20102;-84
2023/05/31 03:45:06;;;;;;;4.03;2.30;;;14.50;69.40;;;;;;5077892;28;20029;-80
2023/05/31 03:47:32;;;;;;;3.10;2.15;;;14.50;69.40;;;;;;5041211;28;20502;-83
2023/05/31 03:49:57;;;;;;;3.33;2.53;;;14.40;69.50;;;;;;5032859;28;20081;-83
2023/05/31 03:52:23;;;;;;;2.80;2.00;;;14.40;69.50;;;;;;5039252;28;20410;-83
2023/05/31 03:54:50;;;;;;;3.00;2.10;;;14.40;69.50;;;;;;5034734;28;20250;-82
2023/05/31 03:57:16;;;;;;;4.53;2.63;;;14.40;69.50;;;;;;5055751;28;20029;-80
2023/05/31 03:59:41;;;;;;;3.25;2.20;;;14.40;69.60;;;;;;5025456;28;20068;-83
2023/05/31 04:02:07;;;;;;;3.75;2.20;;;14.40;69.70;;;;;;5035614;28;20025;-83
2023/05/31 04:04:33;;;;;;;3.40;2.60;;;14.40;69.70;;;;;;5032171;28;20097;-83
2023/05/31 04:06:59;;;;;;;4.20;2.33;;;14.40;70.00;;;;;;5049752;28;20129;-82
2023/05/31 04:09:25;;;;;;;4.13;2.35;;;14.40;70.00;;;;;;5053916;28;20092;-83
2023/05/31 04:11:51;;;;;;;3.07;2.23;;;14.40;70.00;;;;;;5034185;28;20513;-81
2023/05/31 04:14:17;;;;;;;3.95;2.50;;;14.40;70.10;;;;;;5048699;28;20020;-81
2023/05/31 04:16:43;;;;;;;3.17;2.22;;;14.40;70.20;;;;;;5007916;28;20029;-83
2023/05/31 04:19:10;;;;;;;3.50;2.23;;;14.40;70.20;;;;;;5041718;28;20032;-82
2023/05/31 04:21:36;;;;;;;3.70;2.22;;;14.40;70.30;;;;;;5053511;28;20021;-83
2023/05/31 04:24:02;;;;;;;3.38;2.13;;;14.40;70.40;;;;;;5047302;28;20448;-82
2023/05/31 04:26:29;;;;;;;3.10;2.05;;;14.40;70.20;;;;;;5051045;28;20661;-83
2023/05/31 04:28:55;;;;;;;3.27;2.30;;;14.40;70.50;;;;;;5051422;28;20650;-82
2023/05/31 04:31:24;;;;;;;3.38;2.47;;;14.40;70.30;;;;;;5026583;28;20036;-81
2023/05/31 04:33:53;;;;;;;3.15;2.40;;;14.40;70.50;;;;;;5029796;28;20713;-82
2023/05/31 04:36:20;;;;;;;4.32;2.40;;;14.40;70.80;;;;;;5024431;28;20548;-82
2023/05/31 04:38:47;;;;;;;3.53;2.33;;;14.40;71.00;;;;;;5068087;28;20410;-81
2023/05/31 04:41:15;;;;;;;3.50;2.30;;;14.40;71.00;;;;;;5033845;28;20533;-83
2023/05/31 04:43:42;;;;;;;3.42;2.40;;;14.40;71.10;;;;;;5041663;28;20363;-83
2023/05/31 04:46:09;;;;;;;3.47;2.30;;;14.50;71.20;;;;;;5027167;28;20738;-80
2023/05/31 04:48:36;;;;;;;4.18;2.70;;;14.50;71.10;;;;;;5069001;28;20029;-82
2023/05/31 04:51:04;;;;;;;4.20;2.53;;;14.50;71.30;;;;;;5059636;28;20025;-81
2023/05/31 04:53:30;;;;;;;4.45;2.67;;;14.60;71.20;;;;;;5042353;28;20067;-82
2023/05/31 04:55:55;;;;;;;4.00;2.60;;;14.60;71.30;;;;;;5033306;28;20103;-80
2023/05/31 04:58:21;;;;;;;3.53;2.33;;;14.60;71.50;;;;;;5050200;28;20068;-83
2023/05/31 05:00:48;;;;;;;3.65;2.58;;;14.70;71.50;;;;;;5040268;28;20029;-82
2023/05/31 05:03:14;;;;;;;4.95;2.50;;;14.70;71.40;;;;;;5005495;28;20623;-83
2023/05/31 05:05:40;;;;;;;3.75;2.50;;;14.70;71.50;;;;;;5043268;28;20024;-81
2023/05/31 05:08:07;;;;;;;3.57;2.67;;;14.70;71.60;;;;;;5024177;28;20046;-83
2023/05/31 05:10:32;;;;;;;3.53;2.63;;;14.80;71.50;;;;;;5024781;28;20324;-82
2023/05/31 05:12:58;;;;;;;3.85;2.60;;;14.80;71.70;;;;;;5046491;28;20482;-83
2023/05/31 05:15:24;;;;;;;4.70;2.73;;;14.80;71.60;;;;;;5043135;28;20104;-81
2023/05/31 05:17:50;;;;;;;4.57;2.95;;;14.90;71.80;;;;;;5024921;28;20142;-81
2023/05/31 05:20:16;;;;;;;3.75;2.90;;;14.90;71.80;;;;;;5047870;28;20429;-81
2023/05/31 05:22:45;;;;;;;4.22;2.83;;;14.90;71.70;;;;;;5018345;28;20020;-81
2023/05/31 05:25:12;;;;;;;4.23;2.70;;;14.90;71.90;;;;;;5029548;28;20025;-83
2023/05/31 05:27:37;;;;;;;3.70;2.63;;;14.90;71.90;;;;;;5050512;28;20064;-83
2023/05/31 05:30:04;;;;;;;4.22;2.83;;;15.00;72.00;;;;;;5074696;28;20156;-83
2023/05/31 05:32:29;;;;;;;5.03;2.53;;;15.00;72.10;;;;;;5044975;28;20177;-82
2023/05/31 05:34:55;;;;;;;3.78;2.88;;;15.00;72.20;;;;;;5026766;28;20028;-81
2023/05/31 05:37:21;;;;;;;4.70;3.22;;;15.10;72.20;;;;;;5025198;28;20041;-82
2023/05/31 05:39:47;;;;;;;5.43;3.40;;;15.20;72.10;;;;;;5052724;28;20503;-84
2023/05/31 05:42:13;;;;;;;5.10;3.47;;;15.20;72.10;;;;;;5031153;28;20016;-83
2023/05/31 05:44:39;;;;;;;5.15;3.70;;;15.20;72.10;;;;;;5047617;28;20486;-84
2023/05/31 05:47:05;;;;;;;5.57;3.67;;;15.30;72.20;;;;;;5059835;28;20017;-83
2023/05/31 05:49:32;;;;;;;4.60;3.08;;;15.30;72.40;;;;;;5025420;28;20503;-81
2023/05/31 05:51:58;;;;;;;5.30;3.47;;;15.30;72.40;;;;;;5040546;28;20017;-84
2023/05/31 05:54:24;;;;;;;5.60;3.20;;;15.30;72.40;;;;;;5035651;28;20264;-84
2023/05/31 05:56:49;;;;;;;5.07;3.35;;;15.40;72.40;;;;;;5037298;28;20040;-80
2023/05/31 05:59:15;;;;;;;5.47;3.20;;;15.40;72.60;;;;;;5045233;28;20039;-81
2023/05/31 06:01:41;;;;;;;4.10;2.67;;;15.50;72.70;;;;;;5084855;27;20050;-80
2023/05/31 06:04:07;;;;;;;5.50;3.72;;;15.60;72.80;;;;;;5038112;28;20095;-83
2023/05/31 06:06:33;;;;;;;5.05;3.42;;;15.70;72.70;;;;;;5025373;28;20285;-81
2023/05/31 06:08:59;;;;;;;4.50;3.27;;;15.70;72.70;;;;;;5049729;28;20060;-84
2023/05/31 06:11:25;;;;;;;5.00;3.22;;;15.80;72.70;;;;;;5047807;28;20257;-79
2023/05/31 06:13:56;;;;;;;5.03;3.35;;;15.90;73.00;;;;;;5041609;28;20123;-84
2023/05/31 06:16:22;;;;;;;4.90;3.23;;;15.90;72.80;;;;;;5028316;28;20037;-84
2023/05/31 06:18:48;;;;;;;5.28;3.30;;;16.00;72.90;;;;;;5044660;28;20122;-79
2023/05/31 06:21:14;;;;;;;5.72;3.70;;;16.10;73.00;;;;;;5008122;28;20421;-83
2023/05/31 06:23:40;;;;;;;5.43;3.70;;;16.20;72.90;;;;;;5047959;28;20111;-81
2023/05/31 06:26:06;;;;;;;5.63;3.60;;;16.20;72.70;;;;;;5034730;28;20466;-82
2023/05/31 06:28:32;;;;;;;5.35;3.60;;;16.30;72.90;;;;;;5053033;28;20462;-82
2023/05/31 06:31:00;;;;;;;4.80;3.15;;;16.30;72.80;;;;;;5027376;28;20595;-83
2023/05/31 06:33:26;;;;;;;5.72;3.40;;;16.40;72.90;;;;;;5061226;28;20728;-83
2023/05/31 06:35:52;;;;;;;5.83;3.23;;;16.50;72.90;;;;;;5011852;28;20093;-80
2023/05/31 06:38:21;;;;;;;5.70;3.85;;;16.60;73.10;;;;;;5042123;28;20701;-82
2023/05/31 06:40:47;;;;;;;6.05;3.55;;;16.70;73.00;;;;;;5047786;28;21692;-79
2023/05/31 06:43:15;;;;;;;6.75;3.47;;;16.80;73.20;;;;;;5037483;28;20547;-83
2023/05/31 06:45:41;;;;;;;4.65;3.30;;;16.80;73.20;;;;;;5040890;28;20526;-79
2023/05/31 06:48:09;;;;;;;6.77;3.23;;;17.00;73.00;;;;;;5041901;28;20047;-83
2023/05/31 06:50:34;;;;;;;6.60;3.65;;;17.00;72.90;;;;;;5027116;28;20029;-83
2023/05/31 06:53:00;;;;;;;6.25;3.63;;;17.20;72.90;;;;;;5035299;28;20024;-79
2023/05/31 06:55:26;;;;;;;5.43;3.63;;;17.20;72.80;;;;;;5059041;28;20655;-84
2023/05/31 06:57:52;;;;;;;5.43;3.53;;;17.30;72.80;;;;;;5050025;28;20098;-84
2023/05/31 07:00:19;;;;;;;5.60;3.40;;;17.40;72.80;;;;;;5044780;28;20721;-82
2023/05/31 07:02:45;;;;;;;5.20;3.37;;;17.40;72.80;;;;;;5041920;28;20062;-82
2023/05/31 07:05:11;;;;;;;5.45;3.42;;;17.60;72.80;;;;;;5021614;28;20032;-85
2023/05/31 07:07:37;;;;;;;6.70;3.90;;;17.60;72.80;;;;;;5034834;28;20036;-81
2023/05/31 07:10:03;;;;;;;4.90;3.43;;;17.70;72.60;;;;;;5060821;28;20143;-82
2023/05/31 07:12:28;;;;;;;6.50;4.28;;;17.80;72.60;;;;;;5027697;28;20451;-81
2023/05/31 07:14:54;;;;;;;5.13;3.17;;;17.90;72.60;;;;;;5036837;28;20032;-82
2023/05/31 07:17:20;;;;;;;6.43;3.90;;;17.90;72.70;;;;;;5031896;28;20031;-83
2023/05/31 07:19:47;;;;;;;5.82;3.60;;;18.00;72.70;;;;;;5052213;28;20049;-83
2023/05/31 07:22:15;;;;;;;7.05;4.30;;;18.10;72.70;;;;;;5014741;28;20309;-82
2023/05/31 07:24:42;;;;;;;6.60;4.23;;;18.20;72.70;;;;;;5045012;28;20321;-81
2023/05/31 07:27:08;;;;;;;5.90;3.75;;;18.30;72.60;;;;;;5065176;28;20027;-80
2023/05/31 07:29:35;;;;;;;5.85;3.55;;;18.30;72.40;;;;;;5041310;28;20106;-80
2023/05/31 07:32:00;;;;;;;7.80;4.03;;;18.40;73.20;;;;;;5030714;28;20039;-82
2023/05/31 07:34:26;;;;;;;5.60;3.75;;;18.50;72.40;;;;;;5041193;28;20016;-79
2023/05/31 07:36:52;;;;;;;5.90;3.60;;;18.60;72.30;;;;;;5026192;28;20119;-80
2023/05/31 07:39:21;;;;;;;5.78;3.72;;;18.70;72.60;;;;;;5019188;28;20421;-83
2023/05/31 07:41:48;;;;;;;5.32;3.67;;;18.80;72.90;;;;;;5078677;28;20285;-80
2023/05/31 07:44:16;;;;;;;6.43;3.85;;;18.90;73.00;;;;;;5022815;28;20419;-81
2023/05/31 07:46:42;;;;;;;6.67;3.83;;;19.10;72.80;;;;;;5055402;28;20029;-81
2023/05/31 07:49:08;;;;;;;4.90;3.40;;;19.20;72.60;;;;;;5070060;28;20029;-84
2023/05/31 07:51:34;;;;;;;5.50;3.55;;;19.30;72.50;;;;;;5049906;28;20052;-83
2023/05/31 07:54:00;;;;;;;5.97;3.80;;;19.50;72.40;;;;;;5037730;28;20036;-83
2023/05/31 07:56:26;;;;;;;6.20;3.50;;;19.60;72.50;;;;;;5043347;28;20213;-79
2023/05/31 07:58:52;;;;;;;5.82;3.70;;;19.80;73.10;;;;;;5039990;28;20455;-81
2023/05/31 08:01:18;;;;;;;6.93;3.60;;;20.00;73.80;;;;;;5022110;28;20235;-83
2023/05/31 08:03:44;;;;;;;4.68;3.30;;;20.40;74.80;;;;;;5040226;28;20094;-81
2023/05/31 08:06:10;;;;;;;5.27;3.40;;;20.80;75.20;;;;;;5044935;28;20032;-84
2023/05/31 08:08:41;;;;;;;4.20;3.17;;;21.20;75.50;;;;;;5029344;28;20040;-83
2023/05/31 08:11:06;;;;;;;5.10;3.08;;;21.70;75.60;;;;;;5047987;28;20329;-84
2023/05/31 08:13:32;;;;;;;5.27;3.27;;;22.20;75.40;;;;;;5050679;28;20477;-81
2023/05/31 08:15:58;;;;;;;6.00;2.90;;;22.70;74.80;;;;;;5024202;28;20033;-84
2023/05/31 08:18:24;;;;;;;4.13;2.70;;;23.20;74.10;;;;;;5032977;28;21083;-83
2023/05/31 08:20:50;;;;;;;5.53;2.50;;;23.70;73.40;;;;;;5041708;28;20457;-82
2023/05/31 08:23:20;;;;;;;4.10;2.95;;;24.20;73.20;;;;;;5022931;28;20112;-81
2023/05/31 08:25:47;;;;;;;4.15;2.72;;;24.70;72.00;;;;;;5047984;28;20844;-86
2023/05/31 08:28:13;;;;;;;4.60;2.70;;;25.10;71.70;;;;;;5045915;28;20371;-85
2023/05/31 08:30:39;;;;;;;5.87;3.10;;;25.50;71.10;;;;;;5034888;28;20035;-82
2023/05/31 08:33:05;;;;;;;3.95;2.83;;;25.90;70.50;;;;;;5031041;28;20075;-84
2023/05/31 08:35:31;;;;;;;3.70;2.42;;;26.30;69.70;;;;;;5043063;28;20047;-86
2023/05/31 08:37:57;;;;;;;3.57;2.60;;;26.60;69.00;;;;;;5039398;28;20036;-82
2023/05/31 08:40:24;;;;;;;4.15;2.60;;;27.00;68.50;;;;;;5031518;28;20226;-83
2023/05/31 08:43:01;;;;;;;3.67;2.60;;;27.30;68.10;;;;;;5040880;28;20025;-86
2023/05/31 08:45:30;;;;;;;4.47;2.92;;;27.70;65.00;;;;;;5017224;28;20444;-82
2023/05/31 08:48:19;;;;;;;3.30;2.65;;;27.90;65.10;;;;;;5037556;28;20081;-82
2023/05/31 08:50:46;;;;;;;4.43;2.67;;;28.20;63.10;;;;;;5035181;28;20036;-83
2023/05/31 08:53:15;;;;;;;3.67;2.75;;;28.40;63.60;;;;;;5056786;28;20096;-86
2023/05/31 08:55:43;;;;;;;3.17;2.47;;;28.50;62.60;;;;;;5025232;28;20106;-85
2023/05/31 08:58:10;;;;;;;4.72;2.83;;;28.70;62.10;;;;;;5038045;28;20040;-87
2023/05/31 09:00:37;;;;;;;4.50;2.67;;;28.90;61.70;;;;;;5042265;28;21555;-84
2023/05/31 09:03:06;;;;;;;4.80;2.70;;;29.10;60.70;;;;;;5039551;28;20099;-86
2023/05/31 09:05:31;;;;;;;3.33;2.72;;;29.20;59.60;;;;;;5040079;28;20417;-83
2023/05/31 09:08:01;;;;;;;4.35;2.83;;;29.40;59.90;;;;;;5048865;28;20033;-87
2023/05/31 09:10:28;;;;;;;4.20;2.80;;;29.50;59.10;;;;;;5026168;28;20045;-82
2023/05/31 09:12:54;;;;;;;3.43;2.40;;;29.70;59.40;;;;;;5040596;28;20070;-86
2023/05/31 09:15:23;;;;;;;2.97;2.40;;;29.90;58.90;;;;;;5051324;28;20036;-82
2023/05/31 09:17:49;;;;;;;3.92;2.58;;;30.10;58.20;;;;;;5028774;28;20265;-84
2023/05/31 09:20:16;;;;;;;3.58;2.85;;;30.30;58.00;;;;;;5040590;28;20091;-84
2023/05/31 09:22:46;;;;;;;3.63;2.43;;;30.40;56.80;;;;;;5044053;28;20102;-82
2023/05/31 09:25:12;;;;;;;4.65;2.63;;;30.60;56.50;;;;;;5029738;28;20052;-86
2023/05/31 09:27:39;;;;;;;4.57;2.70;;;30.70;56.20;;;;;;5046609;28;20040;-88
2023/05/31 09:30:08;;;;;;;4.32;2.72;;;30.80;55.60;;;;;;5051010;28;20405;-83
2023/05/31 09:32:37;;;;;;;4.25;2.88;;;30.90;54.40;;;;;;5061281;27;21034;-83
2023/05/31 09:35:12;;;;;;;3.00;2.40;;;31.00;54.00;;;;;;5070421;27;20378;-87
2023/05/31 09:37:48;;;;;;;3.08;2.25;;;31.00;53.70;;;;;;5029832;28;20047;-81
2023/05/31 09:40:24;;;;;;;4.80;2.90;;;31.10;52.40;;;;;;5034769;28;20494;-82
2023/05/31 09:42:51;;;;;;;4.78;2.53;;;31.20;53.20;;;;;;5052035;28;20136;-87
2023/05/31 09:45:18;;;;;;;3.30;2.20;;;31.20;52.50;;;;;;5037478;28;22009;-82
2023/05/31 09:47:45;;;;;;;4.03;2.70;;;31.30;52.70;;;;;;5034029;28;20039;-81
2023/05/31 09:50:15;;;;;;;4.57;2.65;;;31.30;52.10;;;;;;5036831;28;20354;-85
2023/05/31 09:52:46;;;;;;;5.03;2.90;;;31.40;52.30;;;;;;5040480;28;20517;-85
2023/05/31 09:55:15;;;;;;;5.63;3.00;;;31.50;51.60;;;;;;5049679;28;20751;-82
2023/05/31 09:57:43;;;;;;;3.67;2.28;;;31.60;51.50;;;;;;5044355;28;20230;-86
2023/05/31 10:00:20;;;;;;;3.53;2.50;;;31.80;50.80;;;;;;5042220;28;20052;-84
2023/05/31 10:02:51;;;;;;;3.90;2.45;;;31.80;50.30;;;;;;5031949;28;20566;-84
2023/05/31 10:05:18;;;;;;;3.42;2.30;;;32.00;50.80;;;;;;5067633;28;20013;-84
2023/05/31 10:07:46;;;;;;;5.65;2.95;;;32.10;50.20;;;;;;5052707;28;20260;-87
2023/05/31 10:10:13;;;;;;;3.17;1.95;;;32.30;49.60;;;;;;5046731;28;20016;-88
2023/05/31 10:12:54;;;;;;;3.57;2.77;;;32.40;49.40;;;;;;5005180;28;20033;-81
2023/05/31 10:15:23;;;;;;;3.22;2.33;;;32.50;47.10;;;;;;5053769;28;20317;-84
2023/05/31 10:17:55;;;;;;;4.40;2.28;;;32.60;47.90;;;;;;5033496;28;20040;-86
2023/05/31 10:20:24;;;;;;;4.20;2.38;;;32.70;48.00;;;;;;5029986;28;20141;-86
2023/05/31 10:22:54;;;;;;;3.47;2.33;;;32.80;48.00;;;;;;5041530;28;20113;-86
2023/05/31 10:25:57;;;;;;;3.30;2.20;;;32.90;47.20;;;;;;5041332;28;20340;-86
2023/05/31 10:28:27;;;;;;;3.83;2.42;;;33.00;45.70;;;;;;5019149;28;20103;-86
2023/05/31 10:30:55;;;;;;;3.28;1.88;;;33.10;46.60;;;;;;5030684;28;20032;-83
2023/05/31 10:33:22;;;;;;;4.75;2.30;;;33.30;47.30;;;;;;5069349;27;20033;-82
2023/05/31 10:35:50;;;;;;;3.95;2.20;;;33.30;46.10;;;;;;5018606;28;20490;-83
2023/05/31 10:38:20;;;;;;;3.17;2.20;;;33.40;45.30;;;;;;5057961;28;20078;-86
2023/05/31 10:40:59;;;;;;;3.58;2.20;;;33.50;44.30;;;;;;5062479;27;20150;-86
2023/05/31 10:43:44;;;;;;;4.40;2.25;;;33.50;43.70;;;;;;5030775;28;20112;-84
2023/05/31 10:46:19;;;;;;;4.40;2.10;;;33.60;42.70;;;;;;5061369;27;20036;-85
2023/05/31 10:48:50;;;;;;;5.20;2.10;;;33.60;42.90;;;;;;5040867;28;20119;-84
2023/05/31 10:51:16;;;;;;;2.57;2.07;;;33.60;42.30;;;;;;5031353;28;20226;-81
2023/05/31 10:53:47;;;;;;;3.05;1.73;;;33.60;43.10;;;;;;5024495;28;20029;-84
2023/05/31 10:56:14;;;;;;;3.30;2.20;;;33.70;42.90;;;;;;5056803;27;20021;-84
2023/05/31 10:58:48;;;;;;;3.33;2.15;;;33.80;42.00;;;;;;5006837;28;20040;-83
2023/05/31 11:01:18;;;;;;;3.40;2.20;;;33.80;41.00;;;;;;5024259;28;20033;-81
2023/05/31 11:03:46;;;;;;;3.43;2.00;;;33.70;41.20;;;;;;5043362;28;20021;-86
2023/05/31 11:06:19;;;;;;;2.97;2.00;;;33.70;41.40;;;;;;5055157;27;20025;-80
2023/05/31 11:09:11;;;;;;;3.08;2.08;;;33.70;41.80;;;;;;5068108;27;20612;-86
2023/05/31 11:11:39;;;;;;;3.80;2.15;;;33.70;40.90;;;;;;5019698;28;20140;-85
2023/05/31 11:14:30;;;;;;;3.78;2.00;;;33.80;41.70;;;;;;5037794;28;20041;-81
2023/05/31 11:17:02;;;;;;;2.30;1.90;;;34.00;40.30;;;;;;5035506;28;20018;-83
2023/05/31 11:19:32;;;;;;;4.00;1.85;;;34.00;41.20;;;;;;5051990;28;20063;-88
2023/05/31 11:22:09;;;;;;;3.38;2.00;;;34.00;39.60;;;;;;5018450;28;20068;-83
2023/05/31 11:24:42;;;;;;;3.47;2.40;;;34.00;40.00;;;;;;5035109;28;20024;-84
2023/05/31 11:27:12;;;;;;;3.53;1.90;;;34.10;40.20;;;;;;5004715;28;20662;-82
2023/05/31 11:29:57;;;;;;;4.17;1.83;;;34.10;40.00;;;;;;5006313;28;20039;-84
2023/05/31 11:32:34;;;;;;;3.17;1.80;;;34.10;40.10;;;;;;5028528;28;20028;-83
2023/05/31 11:35:06;;;;;;;2.85;1.85;;;34.20;39.70;;;;;;5041035;28;20469;-85
2023/05/31 11:37:35;;;;;;;2.88;1.77;;;34.40;39.70;;;;;;5016382;28;20082;-84
2023/05/31 11:40:05;;;;;;;2.60;1.70;;;34.50;39.70;;;;;;5024850;28;20059;-83
2023/05/31 11:42:39;;;;;;;2.60;1.90;;;34.60;39.50;;;;;;5036189;28;20028;-81
2023/05/31 11:45:20;;;;;;;3.30;2.00;;;34.60;38.20;;;;;;5031042;28;20553;-84
2023/05/31 11:48:21;;;;;;;3.05;1.92;;;34.80;38.10;;;;;;4989808;28;20036;-84
2023/05/31 11:50:47;;;;;;;2.75;1.60;;;34.80;38.50;;;;;;5037225;28;20040;-81
2023/05/31 11:53:14;;;;;;;3.93;2.03;;;34.80;38.80;;;;;;5056172;27;20401;-85
2023/05/31 11:55:47;;;;;;;2.15;1.77;;;34.90;38.40;;;;;;5042314;28;20024;-85
2023/05/31 11:58:13;;;;;;;3.05;1.90;;;35.00;38.40;;;;;;5036403;28;20075;-87
2023/05/31 12:00:46;;;;;;;2.75;1.80;;;35.10;38.20;;;;;;5010393;28;20167;-85
2023/05/31 12:03:17;;;;;;;4.18;2.00;;;35.20;37.70;;;;;;5014439;28;20070;-83
2023/05/31 12:05:51;;;;;;;2.87;1.90;;;35.30;37.40;;;;;;5016379;28;20534;-86
2023/05/31 12:08:17;;;;;;;2.47;1.80;;;35.40;36.50;;;;;;5048439;28;20059;-83
2023/05/31 12:10:45;;;;;;;2.10;1.58;;;35.40;37.10;;;;;;5069439;28;20090;-84
2023/05/31 12:13:12;;;;;;;2.70;1.65;;;35.50;37.20;;;;;;5062327;28;20035;-84
2023/05/31 12:15:37;;;;;;;2.88;1.90;;;35.50;37.20;;;;;;5015365;28;20029;-85
2023/05/31 12:18:04;;;;;;;3.70;2.00;;;35.50;36.70;;;;;;5004494;28;20031;-83
2023/05/31 12:20:30;;;;;;;2.95;1.77;;;35.50;36.00;;;;;;5024028;28;20035;-84
2023/05/31 12:23:14;;;;;;;3.70;1.83;;;35.50;36.60;;;;;;5043815;28;20028;-87
2023/05/31 12:25:50;;;;;;;3.90;1.90;;;35.50;36.00;;;;;;5034844;28;20063;-85
2023/05/31 12:28:21;;;;;;;3.80;2.10;;;35.50;35.40;;;;;;5066087;28;20046;-85
2023/05/31 12:30:49;;;;;;;4.00;2.00;;;35.50;35.40;;;;;;5046828;28;20225;-84
2023/05/31 12:33:15;;;;;;;4.55;2.30;;;35.40;35.20;;;;;;5017115;28;20013;-85
2023/05/31 12:35:46;;;;;;;4.85;1.83;;;35.20;34.90;;;;;;5031400;28;20275;-83
2023/05/31 12:38:12;;;;;;;3.27;1.80;;;35.00;34.90;;;;;;5061372;28;21186;-86
2023/05/31 12:40:42;;;;;;;3.78;2.15;;;34.90;35.10;;;;;;5014870;28;21293;-84
2023/05/31 12:43:09;;;;;;;3.15;1.80;;;34.80;34.90;;;;;;5032455;28;20036;-84
2023/05/31 12:45:42;;;;;;;3.80;1.70;;;34.70;35.40;;;;;;5043615;28;20116;-83
2023/05/31 12:48:09;;;;;;;3.10;1.57;;;34.70;35.20;;;;;;5033214;28;20516;-83
2023/05/31 12:50:35;;;;;;;5.35;1.85;;;34.60;35.40;;;;;;4998581;28;20045;-82
2023/05/31 12:53:05;;;;;;;2.72;1.83;;;34.70;35.30;;;;;;5035968;28;20029;-84